AAL5432 KDCA-KDSM
Flight info
| Callsign | AAL5432 |
|---|---|
| Flight time | N/A |
| Altitude | 38000 |
| Route | WYNGS5 RAMAY Q72 HACKS J149 ROD SJAAY WHETT CADIZ BFORD IOW J10 DSM |
| Aircraft | A319/M-SDE3FGHIRWY/LB1 |
Departure
| Time | 2026-05-06 12:31 |
|---|---|
| Airport | Ronald Reagan Washington National Airport (KDCA) |
Arrival
| Time | N/A |
|---|---|
| Airport | Des Moines International Airport (KDSM) |
| Time | Latitude | Longitude | Altitude | Speed | Heading |
|---|---|---|---|---|---|
| 2026-05-06 12:01 | 38.85557 | -77.04274 | 28 ft | 0 kts | 338° |
| 2026-05-06 12:22 | 38.85545 | -77.04268 | 26 ft | 4 kts | 338° |
| 2026-05-06 12:23 | 38.85524 | -77.04257 | 25 ft | 2 kts | 338° |
| 2026-05-06 12:23 | 38.85503 | -77.04251 | 26 ft | 4 kts | 32° |
| 2026-05-06 12:23 | 38.85494 | -77.04262 | 24 ft | 3 kts | 72° |
| 2026-05-06 12:23 | 38.85502 | -77.04230 | 26 ft | 4 kts | 72° |
| 2026-05-06 12:24 | 38.85511 | -77.04197 | 24 ft | 4 kts | 72° |
| 2026-05-06 12:24 | 38.85516 | -77.04173 | 24 ft | 0 kts | 72° |
| 2026-05-06 12:26 | 38.85517 | -77.04173 | 24 ft | 1 kts | 72° |
| 2026-05-06 12:26 | 38.85526 | -77.04136 | 24 ft | 8 kts | 72° |
| 2026-05-06 12:26 | 38.85552 | -77.04029 | 24 ft | 16 kts | 75° |
| 2026-05-06 12:26 | 38.85632 | -77.03965 | 25 ft | 15 kts | 355° |
| 2026-05-06 12:27 | 38.85733 | -77.03974 | 28 ft | 14 kts | 356° |
| 2026-05-06 12:27 | 38.85828 | -77.03984 | 25 ft | 14 kts | 355° |
| 2026-05-06 12:27 | 38.85926 | -77.03986 | 24 ft | 14 kts | 14° |
| 2026-05-06 12:27 | 38.86008 | -77.03955 | 24 ft | 0 kts | 17° |
| 2026-05-06 12:28 | 38.86009 | -77.03954 | 24 ft | 1 kts | 17° |
| 2026-05-06 12:28 | 38.86028 | -77.03947 | 24 ft | 5 kts | 17° |
| 2026-05-06 12:28 | 38.86075 | -77.03926 | 24 ft | 9 kts | 28° |
| 2026-05-06 12:29 | 38.86056 | -77.03865 | 23 ft | 11 kts | 171° |
| 2026-05-06 12:29 | 38.85994 | -77.03859 | 24 ft | 0 kts | 175° |
| 2026-05-06 12:30 | 38.85993 | -77.03859 | 24 ft | 1 kts | 175° |
| 2026-05-06 12:30 | 38.85821 | -77.03843 | 26 ft | 61 kts | 176° |
| 2026-05-06 12:30 | 38.85171 | -77.03781 | 26 ft | 123 kts | 175° |
| 2026-05-06 12:30 | 38.84250 | -77.03691 | 374 ft | 140 kts | 178° |
| 2026-05-06 12:31 | 38.83251 | -77.03590 | 947 ft | 147 kts | 178° |
| 2026-05-06 12:31 | 38.82221 | -77.03470 | 1646 ft | 149 kts | 181° |
| 2026-05-06 12:31 | 38.81146 | -77.03437 | 2139 ft | 163 kts | 188° |
| 2026-05-06 12:31 | 38.79928 | -77.03464 | 2481 ft | 187 kts | 190° |
| 2026-05-06 12:32 | 38.78540 | -77.03494 | 2909 ft | 212 kts | 189° |
| 2026-05-06 12:32 | 38.76989 | -77.03517 | 3518 ft | 230 kts | 190° |
| 2026-05-06 12:32 | 38.75512 | -77.04156 | 4318 ft | 227 kts | 222° |
| 2026-05-06 12:32 | 38.74699 | -77.05880 | 5167 ft | 236 kts | 252° |
| 2026-05-06 12:33 | 38.74446 | -77.07995 | 6063 ft | 244 kts | 261° |
| 2026-05-06 12:33 | 38.74354 | -77.10205 | 6897 ft | 251 kts | 263° |
| 2026-05-06 12:33 | 38.74302 | -77.12456 | 7764 ft | 255 kts | 263° |
| 2026-05-06 12:33 | 38.74238 | -77.14744 | 8641 ft | 258 kts | 263° |
| 2026-05-06 12:34 | 38.74144 | -77.17057 | 9524 ft | 262 kts | 262° |
| 2026-05-06 12:34 | 38.74026 | -77.19401 | 10305 ft | 268 kts | 261° |
| 2026-05-06 12:34 | 38.73918 | -77.21900 | 10606 ft | 294 kts | 266° |
| 2026-05-06 12:34 | 38.74150 | -77.24597 | 10871 ft | 323 kts | 277° |
| 2026-05-06 12:35 | 38.74908 | -77.27429 | 11250 ft | 347 kts | 290° |
| 2026-05-06 12:35 | 38.76158 | -77.30158 | 11915 ft | 358 kts | 296° |
| 2026-05-06 12:35 | 38.77484 | -77.32891 | 12637 ft | 362 kts | 296° |
| 2026-05-06 12:35 | 38.78797 | -77.35614 | 13368 ft | 366 kts | 296° |
| 2026-05-06 12:36 | 38.80143 | -77.38414 | 14061 ft | 370 kts | 295° |
| 2026-05-06 12:36 | 38.81501 | -77.41248 | 14772 ft | 372 kts | 295° |
| 2026-05-06 12:36 | 38.82851 | -77.44076 | 15502 ft | 373 kts | 296° |
| 2026-05-06 12:36 | 38.84211 | -77.46927 | 16213 ft | 375 kts | 296° |
| 2026-05-06 12:37 | 38.85561 | -77.49756 | 16932 ft | 376 kts | 296° |
| 2026-05-06 12:37 | 38.86928 | -77.52620 | 17700 ft | 377 kts | 296° |
| 2026-05-06 12:37 | 38.88306 | -77.55508 | 18441 ft | 379 kts | 296° |
| 2026-05-06 12:37 | 38.89683 | -77.58402 | 19075 ft | 380 kts | 296° |
| 2026-05-06 12:38 | 38.91065 | -77.61305 | 19662 ft | 382 kts | 296° |
| 2026-05-06 12:38 | 38.92456 | -77.64227 | 20246 ft | 383 kts | 296° |
| 2026-05-06 12:38 | 38.93601 | -77.67244 | 20817 ft | 378 kts | 286° |
| 2026-05-06 12:38 | 38.94263 | -77.70499 | 21362 ft | 375 kts | 276° |
| 2026-05-06 12:39 | 38.94461 | -77.73836 | 21877 ft | 375 kts | 270° |
| 2026-05-06 12:39 | 38.94572 | -77.77198 | 22387 ft | 377 kts | 271° |
| 2026-05-06 12:39 | 38.94689 | -77.80569 | 22887 ft | 379 kts | 271° |
| 2026-05-06 12:39 | 38.94810 | -77.83968 | 23357 ft | 381 kts | 271° |
| 2026-05-06 12:40 | 38.94931 | -77.87374 | 23789 ft | 383 kts | 271° |
| 2026-05-06 12:40 | 38.95053 | -77.90801 | 24201 ft | 384 kts | 271° |
| 2026-05-06 12:40 | 38.95174 | -77.94240 | 24571 ft | 386 kts | 272° |
| 2026-05-06 12:40 | 38.95293 | -77.97704 | 24926 ft | 389 kts | 271° |
| 2026-05-06 12:41 | 38.95410 | -78.01184 | 25338 ft | 389 kts | 271° |
| 2026-05-06 12:41 | 38.95523 | -78.04633 | 25736 ft | 390 kts | 271° |
| 2026-05-06 12:41 | 38.95638 | -78.08121 | 26149 ft | 391 kts | 271° |
| 2026-05-06 12:41 | 38.95752 | -78.11623 | 26552 ft | 392 kts | 272° |
| 2026-05-06 12:42 | 38.95865 | -78.15128 | 26938 ft | 392 kts | 272° |
| 2026-05-06 12:42 | 38.95939 | -78.17456 | 27193 ft | 393 kts | 272° |
| 2026-05-06 12:42 | 38.96049 | -78.20972 | 27555 ft | 394 kts | 272° |
| 2026-05-06 12:42 | 38.96191 | -78.24493 | 27918 ft | 395 kts | 273° |
| 2026-05-06 12:43 | 38.96397 | -78.27977 | 28287 ft | 395 kts | 274° |
| 2026-05-06 12:43 | 38.96644 | -78.31484 | 28813 ft | 392 kts | 275° |
| 2026-05-06 12:43 | 38.96900 | -78.34954 | 29401 ft | 388 kts | 275° |
| 2026-05-06 12:43 | 38.97149 | -78.38409 | 29959 ft | 385 kts | 275° |
| 2026-05-06 12:44 | 38.97383 | -78.41823 | 30412 ft | 382 kts | 275° |
| 2026-05-06 12:44 | 38.97605 | -78.45214 | 30856 ft | 379 kts | 275° |
| 2026-05-06 12:44 | 38.97818 | -78.48584 | 31303 ft | 377 kts | 275° |
| 2026-05-06 12:44 | 38.98027 | -78.51927 | 31743 ft | 374 kts | 275° |
| 2026-05-06 12:45 | 38.98234 | -78.55250 | 32225 ft | 371 kts | 275° |
| 2026-05-06 12:45 | 38.98439 | -78.58549 | 32717 ft | 368 kts | 275° |
| 2026-05-06 12:45 | 38.98841 | -78.65073 | 33579 ft | 364 kts | 275° |
| 2026-05-06 12:46 | 38.99038 | -78.68261 | 33985 ft | 361 kts | 275° |
| 2026-05-06 12:46 | 38.99236 | -78.71472 | 34390 ft | 359 kts | 275° |
| 2026-05-06 12:46 | 38.99429 | -78.74653 | 34806 ft | 355 kts | 275° |
| 2026-05-06 12:46 | 38.99617 | -78.77812 | 35274 ft | 352 kts | 275° |
| 2026-05-06 12:47 | 38.99803 | -78.80935 | 35698 ft | 349 kts | 275° |
| 2026-05-06 12:47 | 38.99991 | -78.84046 | 36101 ft | 346 kts | 275° |
| 2026-05-06 12:47 | 39.00178 | -78.87112 | 36505 ft | 342 kts | 275° |
| 2026-05-06 12:47 | 39.00363 | -78.90156 | 36884 ft | 340 kts | 275° |
| 2026-05-06 12:48 | 39.00541 | -78.93131 | 37301 ft | 336 kts | 275° |
| 2026-05-06 12:48 | 39.00720 | -78.96116 | 37711 ft | 333 kts | 275° |
| 2026-05-06 12:48 | 39.00897 | -78.99085 | 37843 ft | 332 kts | 275° |
| 2026-05-06 12:49 | 39.01243 | -79.04991 | 37857 ft | 330 kts | 275° |
| 2026-05-06 12:49 | 39.01579 | -79.10884 | 37857 ft | 329 kts | 274° |
| 2026-05-06 12:50 | 39.01919 | -79.16763 | 37857 ft | 329 kts | 275° |
| 2026-05-06 12:50 | 39.02281 | -79.22600 | 37857 ft | 329 kts | 275° |
| 2026-05-06 12:51 | 39.02675 | -79.28461 | 37858 ft | 328 kts | 275° |
| 2026-05-06 12:51 | 39.03061 | -79.34321 | 37857 ft | 329 kts | 275° |
| 2026-05-06 12:52 | 39.03446 | -79.40175 | 37858 ft | 330 kts | 275° |
| 2026-05-06 12:52 | 39.03828 | -79.46075 | 37861 ft | 330 kts | 275° |
| 2026-05-06 12:53 | 39.04202 | -79.51931 | 37860 ft | 330 kts | 275° |
| 2026-05-06 12:53 | 39.04572 | -79.57817 | 37869 ft | 330 kts | 275° |
| 2026-05-06 12:54 | 39.04938 | -79.63709 | 37867 ft | 330 kts | 275° |
| 2026-05-06 12:54 | 39.05306 | -79.69618 | 37886 ft | 330 kts | 275° |
| 2026-05-06 12:55 | 39.05664 | -79.75466 | 37890 ft | 329 kts | 275° |
| 2026-05-06 12:55 | 39.06019 | -79.81350 | 37920 ft | 329 kts | 274° |
| 2026-05-06 12:56 | 39.06375 | -79.87220 | 37911 ft | 328 kts | 274° |
| 2026-05-06 12:56 | 39.06729 | -79.93074 | 37909 ft | 327 kts | 274° |
| 2026-05-06 12:57 | 39.07070 | -79.98921 | 37902 ft | 327 kts | 274° |
| 2026-05-06 12:57 | 39.07407 | -80.04723 | 37894 ft | 327 kts | 274° |
| 2026-05-06 12:58 | 39.07750 | -80.10554 | 37875 ft | 327 kts | 274° |
| 2026-05-06 12:58 | 39.08091 | -80.16387 | 37871 ft | 326 kts | 274° |
| 2026-05-06 12:59 | 39.08430 | -80.22221 | 37882 ft | 326 kts | 274° |
| 2026-05-06 12:59 | 39.08762 | -80.28049 | 37877 ft | 326 kts | 274° |
| 2026-05-06 13:00 | 39.09088 | -80.33871 | 37869 ft | 326 kts | 274° |
| 2026-05-06 13:00 | 39.09400 | -80.39668 | 37869 ft | 326 kts | 274° |
| 2026-05-06 13:01 | 39.09713 | -80.45497 | 37869 ft | 326 kts | 274° |
| 2026-05-06 13:01 | 39.10022 | -80.51317 | 37863 ft | 326 kts | 274° |
| 2026-05-06 13:02 | 39.10332 | -80.57146 | 37865 ft | 325 kts | 273° |
| 2026-05-06 13:02 | 39.10637 | -80.62952 | 37857 ft | 325 kts | 273° |
| 2026-05-06 13:03 | 39.10934 | -80.68761 | 37858 ft | 325 kts | 273° |
| 2026-05-06 13:03 | 39.11228 | -80.74566 | 37862 ft | 325 kts | 273° |
| 2026-05-06 13:04 | 39.11519 | -80.80379 | 37853 ft | 325 kts | 273° |
| 2026-05-06 13:04 | 39.11808 | -80.86188 | 37857 ft | 325 kts | 273° |
| 2026-05-06 13:05 | 39.12103 | -80.91992 | 37867 ft | 325 kts | 273° |
| 2026-05-06 13:05 | 39.12393 | -80.97796 | 37865 ft | 324 kts | 273° |
| 2026-05-06 13:06 | 39.12666 | -81.03558 | 37865 ft | 324 kts | 272° |
| 2026-05-06 13:06 | 39.13179 | -81.09316 | 37861 ft | 326 kts | 282° |
| 2026-05-06 13:07 | 39.15149 | -81.14677 | 37851 ft | 333 kts | 290° |
| 2026-05-06 13:07 | 39.17317 | -81.19917 | 37857 ft | 332 kts | 290° |
| 2026-05-06 13:08 | 39.19482 | -81.25184 | 37847 ft | 332 kts | 290° |
| 2026-05-06 13:08 | 39.21643 | -81.30475 | 37871 ft | 333 kts | 290° |
| 2026-05-06 13:09 | 39.23801 | -81.35757 | 37864 ft | 332 kts | 290° |
| 2026-05-06 13:09 | 39.25950 | -81.41014 | 37866 ft | 332 kts | 290° |
| 2026-05-06 13:10 | 39.28097 | -81.46280 | 37868 ft | 330 kts | 289° |
| 2026-05-06 13:10 | 39.30236 | -81.51534 | 37857 ft | 331 kts | 289° |
| 2026-05-06 13:11 | 39.32373 | -81.56804 | 37841 ft | 331 kts | 289° |
| 2026-05-06 13:11 | 39.34491 | -81.62041 | 37839 ft | 331 kts | 289° |
| 2026-05-06 13:12 | 39.36627 | -81.67314 | 37852 ft | 331 kts | 289° |
| 2026-05-06 13:12 | 39.38768 | -81.72600 | 37853 ft | 331 kts | 289° |
| 2026-05-06 13:13 | 39.40904 | -81.77887 | 37854 ft | 332 kts | 289° |
| 2026-05-06 13:13 | 39.43037 | -81.83188 | 37864 ft | 332 kts | 289° |
| 2026-05-06 13:14 | 39.45168 | -81.88495 | 37869 ft | 332 kts | 289° |
| 2026-05-06 13:14 | 39.47284 | -81.93779 | 37868 ft | 332 kts | 289° |
| 2026-05-06 13:15 | 39.49414 | -81.99089 | 37879 ft | 332 kts | 289° |
| 2026-05-06 13:15 | 39.51545 | -82.04404 | 37880 ft | 332 kts | 289° |
| 2026-05-06 13:16 | 39.53668 | -82.09726 | 37883 ft | 332 kts | 289° |
| 2026-05-06 13:16 | 39.55775 | -82.15031 | 37894 ft | 330 kts | 289° |
| 2026-05-06 13:17 | 39.57877 | -82.20330 | 37893 ft | 330 kts | 289° |
| 2026-05-06 13:17 | 39.59980 | -82.25603 | 37897 ft | 331 kts | 289° |
| 2026-05-06 13:18 | 39.62094 | -82.30919 | 37892 ft | 331 kts | 289° |
| 2026-05-06 13:18 | 39.64197 | -82.36236 | 37893 ft | 331 kts | 288° |
| 2026-05-06 13:19 | 39.66294 | -82.41559 | 37922 ft | 331 kts | 288° |
| 2026-05-06 13:19 | 39.68385 | -82.46872 | 37919 ft | 330 kts | 288° |
| 2026-05-06 13:20 | 39.70476 | -82.52189 | 37950 ft | 330 kts | 288° |
| 2026-05-06 13:20 | 39.72563 | -82.57503 | 37951 ft | 330 kts | 288° |
| 2026-05-06 13:21 | 39.74656 | -82.62823 | 37948 ft | 330 kts | 288° |
| 2026-05-06 13:21 | 39.76728 | -82.68110 | 37947 ft | 330 kts | 288° |
| 2026-05-06 13:22 | 39.78807 | -82.73439 | 37946 ft | 330 kts | 288° |
| 2026-05-06 13:22 | 39.80530 | -82.77864 | 37943 ft | 330 kts | 288° |
| 2026-05-06 13:23 | 39.82596 | -82.83163 | 37942 ft | 328 kts | 288° |
| 2026-05-06 13:23 | 39.84657 | -82.88463 | 37935 ft | 328 kts | 288° |
| 2026-05-06 13:24 | 39.86718 | -82.93790 | 37934 ft | 329 kts | 287° |
| 2026-05-06 13:24 | 39.88778 | -82.99115 | 37934 ft | 329 kts | 287° |
| 2026-05-06 13:25 | 39.90828 | -83.04407 | 37957 ft | 329 kts | 287° |
| 2026-05-06 13:25 | 39.92894 | -83.09748 | 37958 ft | 329 kts | 287° |
| 2026-05-06 13:26 | 39.94947 | -83.15088 | 37954 ft | 329 kts | 287° |
| 2026-05-06 13:26 | 39.96988 | -83.20404 | 37962 ft | 329 kts | 287° |
| 2026-05-06 13:27 | 39.99044 | -83.25754 | 37957 ft | 330 kts | 287° |
| 2026-05-06 13:27 | 40.01099 | -83.31111 | 37949 ft | 330 kts | 287° |
| 2026-05-06 13:28 | 40.03153 | -83.36478 | 37945 ft | 330 kts | 287° |
| 2026-05-06 13:28 | 40.05194 | -83.41821 | 37939 ft | 330 kts | 287° |
| 2026-05-06 13:29 | 40.07237 | -83.47183 | 38020 ft | 331 kts | 287° |
| 2026-05-06 13:29 | 40.09291 | -83.52569 | 37933 ft | 330 kts | 287° |
| 2026-05-06 13:30 | 40.11333 | -83.57953 | 37942 ft | 331 kts | 287° |
| 2026-05-06 13:30 | 40.13369 | -83.63321 | 37950 ft | 332 kts | 287° |
| 2026-05-06 13:31 | 40.15418 | -83.68734 | 37958 ft | 332 kts | 287° |
| 2026-05-06 13:31 | 40.17465 | -83.74160 | 37964 ft | 332 kts | 287° |
| 2026-05-06 13:32 | 40.19512 | -83.79582 | 37973 ft | 332 kts | 287° |
| 2026-05-06 13:32 | 40.21554 | -83.85011 | 37977 ft | 333 kts | 287° |
| 2026-05-06 13:33 | 40.23582 | -83.90415 | 37977 ft | 333 kts | 287° |
| 2026-05-06 13:33 | 40.25624 | -83.95867 | 37992 ft | 333 kts | 287° |
| 2026-05-06 13:34 | 40.27666 | -84.01321 | 37987 ft | 333 kts | 287° |
| 2026-05-06 13:34 | 40.30155 | -84.06558 | 37983 ft | 348 kts | 296° |
| 2026-05-06 13:35 | 40.33186 | -84.11473 | 38028 ft | 349 kts | 297° |
| 2026-05-06 13:35 | 40.36235 | -84.16437 | 37973 ft | 349 kts | 297° |
| 2026-05-06 13:36 | 40.39287 | -84.21425 | 37972 ft | 350 kts | 296° |
| 2026-05-06 13:36 | 40.42321 | -84.26403 | 37976 ft | 351 kts | 296° |
| 2026-05-06 13:37 | 40.45376 | -84.31413 | 37993 ft | 351 kts | 297° |
| 2026-05-06 13:37 | 40.48427 | -84.36419 | 37984 ft | 351 kts | 297° |
| 2026-05-06 13:38 | 40.51480 | -84.41439 | 37970 ft | 351 kts | 296° |
| 2026-05-06 13:38 | 40.54529 | -84.46463 | 37961 ft | 351 kts | 296° |
| 2026-05-06 13:39 | 40.57563 | -84.51463 | 37963 ft | 351 kts | 296° |
| 2026-05-06 13:39 | 40.60615 | -84.56514 | 37968 ft | 352 kts | 296° |
| 2026-05-06 13:40 | 40.63644 | -84.61531 | 37969 ft | 352 kts | 296° |
| 2026-05-06 13:40 | 40.66692 | -84.66580 | 37979 ft | 352 kts | 296° |
| 2026-05-06 13:41 | 40.69741 | -84.71642 | 37985 ft | 352 kts | 296° |
| 2026-05-06 13:41 | 40.72792 | -84.76721 | 37984 ft | 352 kts | 296° |
| 2026-05-06 13:42 | 40.75828 | -84.81782 | 37977 ft | 352 kts | 296° |
| 2026-05-06 13:42 | 40.78846 | -84.86820 | 37989 ft | 352 kts | 296° |
| 2026-05-06 13:43 | 40.81903 | -84.91931 | 37984 ft | 353 kts | 297° |
| 2026-05-06 13:43 | 40.84924 | -84.96995 | 37972 ft | 353 kts | 297° |
| 2026-05-06 13:44 | 40.87988 | -85.02142 | 37973 ft | 354 kts | 297° |
| 2026-05-06 13:44 | 40.91019 | -85.07228 | 37992 ft | 354 kts | 297° |
| 2026-05-06 13:45 | 40.94071 | -85.12360 | 37991 ft | 355 kts | 297° |
| 2026-05-06 13:45 | 40.98006 | -85.20416 | 37992 ft | 336 kts | 281° |
| 2026-05-06 13:46 | 40.98925 | -85.26394 | 37989 ft | 331 kts | 275° |
| 2026-05-06 13:46 | 40.99736 | -85.32401 | 37998 ft | 331 kts | 275° |
| 2026-05-06 13:47 | 41.00547 | -85.38417 | 37998 ft | 332 kts | 275° |
| 2026-05-06 13:47 | 41.01351 | -85.44405 | 38005 ft | 332 kts | 275° |
| 2026-05-06 13:48 | 41.02155 | -85.50439 | 38007 ft | 332 kts | 275° |
| 2026-05-06 13:48 | 41.02959 | -85.56472 | 38004 ft | 332 kts | 275° |
| 2026-05-06 13:49 | 41.03756 | -85.62480 | 37998 ft | 333 kts | 275° |
| 2026-05-06 13:49 | 41.04558 | -85.68526 | 37995 ft | 333 kts | 275° |
| 2026-05-06 13:50 | 41.05351 | -85.74579 | 38028 ft | 333 kts | 275° |
| 2026-05-06 13:50 | 41.06139 | -85.80650 | 37995 ft | 334 kts | 275° |
| 2026-05-06 13:51 | 41.06937 | -85.86731 | 37987 ft | 335 kts | 275° |
| 2026-05-06 13:51 | 41.07733 | -85.92799 | 37993 ft | 336 kts | 275° |
| 2026-05-06 13:52 | 41.08528 | -85.98926 | 38000 ft | 337 kts | 275° |
| 2026-05-06 13:52 | 41.09315 | -86.05062 | 38012 ft | 337 kts | 275° |
| 2026-05-06 13:53 | 41.10093 | -86.11169 | 38021 ft | 338 kts | 275° |
| 2026-05-06 13:53 | 41.10875 | -86.17333 | 38027 ft | 338 kts | 275° |
| 2026-05-06 13:54 | 41.11653 | -86.23487 | 38029 ft | 338 kts | 275° |
| 2026-05-06 13:54 | 41.12435 | -86.29654 | 37988 ft | 339 kts | 275° |
| 2026-05-06 13:55 | 41.13207 | -86.35783 | 38001 ft | 339 kts | 275° |
| 2026-05-06 13:55 | 41.13986 | -86.41969 | 38006 ft | 339 kts | 275° |
| 2026-05-06 13:56 | 41.14764 | -86.48166 | 38013 ft | 339 kts | 275° |
| 2026-05-06 13:56 | 41.15520 | -86.54303 | 38019 ft | 339 kts | 275° |
| 2026-05-06 13:57 | 41.16048 | -86.60507 | 38032 ft | 337 kts | 269° |
| 2026-05-06 13:57 | 41.16121 | -86.66735 | 38027 ft | 338 kts | 269° |
| 2026-05-06 13:58 | 41.16199 | -86.72944 | 38024 ft | 338 kts | 269° |
| 2026-05-06 13:58 | 41.16267 | -86.79196 | 38021 ft | 338 kts | 269° |
| 2026-05-06 13:59 | 41.16333 | -86.85453 | 38021 ft | 339 kts | 269° |
| 2026-05-06 13:59 | 41.16402 | -86.91712 | 38019 ft | 339 kts | 269° |
| 2026-05-06 14:00 | 41.16464 | -86.97969 | 38039 ft | 340 kts | 268° |
| 2026-05-06 14:00 | 41.16524 | -87.04251 | 38033 ft | 341 kts | 269° |
| 2026-05-06 14:01 | 41.16577 | -87.10511 | 38033 ft | 341 kts | 268° |
| 2026-05-06 14:01 | 41.16628 | -87.16835 | 38033 ft | 342 kts | 268° |
| 2026-05-06 14:02 | 41.16677 | -87.23155 | 38014 ft | 342 kts | 268° |
| 2026-05-06 14:02 | 41.16720 | -87.29479 | 38015 ft | 343 kts | 268° |
| 2026-05-06 14:03 | 41.16757 | -87.35777 | 38032 ft | 343 kts | 268° |
| 2026-05-06 14:03 | 41.16787 | -87.41061 | 38022 ft | 344 kts | 268° |
| 2026-05-06 14:04 | 41.16822 | -87.47436 | 38023 ft | 345 kts | 268° |
| 2026-05-06 14:04 | 41.16855 | -87.53821 | 38033 ft | 346 kts | 268° |
| 2026-05-06 14:05 | 41.16886 | -87.60212 | 38042 ft | 346 kts | 268° |
| 2026-05-06 14:05 | 41.16910 | -87.66572 | 38053 ft | 346 kts | 268° |
| 2026-05-06 14:06 | 41.16929 | -87.72981 | 38067 ft | 346 kts | 268° |
| 2026-05-06 14:06 | 41.16949 | -87.79378 | 38070 ft | 346 kts | 268° |
| 2026-05-06 14:07 | 41.16965 | -87.85781 | 38070 ft | 346 kts | 268° |
| 2026-05-06 14:07 | 41.16977 | -87.92183 | 38070 ft | 346 kts | 268° |
| 2026-05-06 14:08 | 41.16981 | -87.98549 | 38062 ft | 346 kts | 268° |
| 2026-05-06 14:08 | 41.16985 | -88.04959 | 38054 ft | 346 kts | 268° |
| 2026-05-06 14:09 | 41.16989 | -88.11325 | 38056 ft | 347 kts | 268° |
| 2026-05-06 14:09 | 41.16984 | -88.17726 | 38024 ft | 347 kts | 268° |
| 2026-05-06 14:10 | 41.16977 | -88.24140 | 38021 ft | 347 kts | 268° |
| 2026-05-06 14:10 | 41.16966 | -88.30563 | 38024 ft | 348 kts | 268° |
| 2026-05-06 14:11 | 41.16948 | -88.36993 | 38034 ft | 348 kts | 268° |
| 2026-05-06 14:11 | 41.16935 | -88.43392 | 38039 ft | 348 kts | 268° |
| 2026-05-06 14:12 | 41.16918 | -88.49834 | 38065 ft | 348 kts | 268° |
| 2026-05-06 14:12 | 41.16891 | -88.56282 | 38061 ft | 349 kts | 268° |
| 2026-05-06 14:13 | 41.16863 | -88.62686 | 38061 ft | 349 kts | 268° |
| 2026-05-06 14:13 | 41.16836 | -88.69109 | 38057 ft | 349 kts | 268° |
| 2026-05-06 14:14 | 41.16799 | -88.75568 | 38054 ft | 349 kts | 268° |
| 2026-05-06 14:14 | 41.16756 | -88.82025 | 38055 ft | 349 kts | 268° |
| 2026-05-06 14:15 | 41.16708 | -88.88469 | 38058 ft | 349 kts | 268° |
| 2026-05-06 14:15 | 41.16660 | -88.94931 | 38055 ft | 349 kts | 268° |
| 2026-05-06 14:16 | 41.16615 | -89.01378 | 38056 ft | 349 kts | 268° |
| 2026-05-06 14:16 | 41.16562 | -89.07779 | 38069 ft | 349 kts | 268° |
| 2026-05-06 14:17 | 41.16507 | -89.14228 | 38071 ft | 349 kts | 268° |
| 2026-05-06 14:17 | 41.16451 | -89.20670 | 38070 ft | 349 kts | 268° |
| 2026-05-06 14:18 | 41.16382 | -89.27118 | 38091 ft | 349 kts | 267° |
| 2026-05-06 14:18 | 41.16309 | -89.33540 | 38081 ft | 349 kts | 267° |
| 2026-05-06 14:19 | 41.16241 | -89.39960 | 38076 ft | 349 kts | 267° |
| 2026-05-06 14:19 | 41.16169 | -89.46434 | 38072 ft | 349 kts | 267° |
| 2026-05-06 14:20 | 41.16091 | -89.52889 | 38068 ft | 349 kts | 267° |
| 2026-05-06 14:20 | 41.16171 | -89.59341 | 38069 ft | 352 kts | 275° |
| 2026-05-06 14:21 | 41.17313 | -89.65715 | 38082 ft | 355 kts | 278° |
| 2026-05-06 14:21 | 41.18489 | -89.72039 | 38072 ft | 355 kts | 278° |
| 2026-05-06 14:22 | 41.19669 | -89.78402 | 38069 ft | 355 kts | 278° |
| 2026-05-06 14:22 | 41.20850 | -89.84787 | 38064 ft | 354 kts | 278° |
| 2026-05-06 14:23 | 41.22018 | -89.91147 | 38063 ft | 354 kts | 278° |
| 2026-05-06 14:23 | 41.23192 | -89.97538 | 38069 ft | 354 kts | 278° |
| 2026-05-06 14:24 | 41.24356 | -90.03875 | 38083 ft | 354 kts | 278° |
| 2026-05-06 14:24 | 41.25510 | -90.10230 | 38079 ft | 354 kts | 278° |
| 2026-05-06 14:25 | 41.26664 | -90.16605 | 38086 ft | 354 kts | 278° |
| 2026-05-06 14:25 | 41.27814 | -90.22976 | 38094 ft | 354 kts | 278° |
| 2026-05-06 14:26 | 41.28968 | -90.29359 | 38087 ft | 354 kts | 278° |
| 2026-05-06 14:26 | 41.30105 | -90.35692 | 38089 ft | 354 kts | 278° |
| 2026-05-06 14:27 | 41.31256 | -90.42079 | 38096 ft | 354 kts | 278° |
| 2026-05-06 14:27 | 41.32400 | -90.48459 | 38088 ft | 354 kts | 278° |
| 2026-05-06 14:28 | 41.33527 | -90.54792 | 38103 ft | 354 kts | 278° |
| 2026-05-06 14:28 | 41.34659 | -90.61164 | 38153 ft | 354 kts | 278° |
| 2026-05-06 14:29 | 41.35793 | -90.67604 | 38080 ft | 357 kts | 278° |
| 2026-05-06 14:29 | 41.36927 | -90.74036 | 38072 ft | 359 kts | 278° |
| 2026-05-06 14:30 | 41.38064 | -90.80528 | 38079 ft | 360 kts | 277° |
| 2026-05-06 14:30 | 41.39192 | -90.87029 | 38081 ft | 360 kts | 277° |
| 2026-05-06 14:31 | 41.40326 | -90.93507 | 38089 ft | 361 kts | 278° |
| 2026-05-06 14:31 | 41.41463 | -91.00032 | 38111 ft | 361 kts | 278° |
| 2026-05-06 14:32 | 41.42590 | -91.06559 | 38113 ft | 360 kts | 277° |
| 2026-05-06 14:32 | 41.43718 | -91.13094 | 38112 ft | 360 kts | 277° |
| 2026-05-06 14:33 | 41.44834 | -91.19585 | 38120 ft | 361 kts | 277° |
| 2026-05-06 14:33 | 41.45947 | -91.26129 | 38109 ft | 362 kts | 277° |
| 2026-05-06 14:34 | 41.47059 | -91.32681 | 38106 ft | 362 kts | 277° |
| 2026-05-06 14:34 | 41.48171 | -91.39205 | 38106 ft | 363 kts | 277° |
| 2026-05-06 14:35 | 41.49292 | -91.45793 | 38113 ft | 363 kts | 277° |
| 2026-05-06 14:35 | 41.50403 | -91.52382 | 38117 ft | 363 kts | 277° |
| 2026-05-06 14:36 | 41.51496 | -91.58929 | 38125 ft | 364 kts | 277° |
| 2026-05-06 14:36 | 41.51768 | -91.65561 | 38123 ft | 358 kts | 265° |
| 2026-05-06 14:37 | 41.51550 | -91.72202 | 38117 ft | 358 kts | 265° |
| 2026-05-06 14:37 | 41.51332 | -91.78822 | 38117 ft | 358 kts | 265° |
| 2026-05-06 14:38 | 41.51120 | -91.85486 | 38114 ft | 359 kts | 265° |
| 2026-05-06 14:38 | 41.50906 | -91.92136 | 38117 ft | 359 kts | 265° |
| 2026-05-06 14:39 | 41.50677 | -91.98798 | 38111 ft | 359 kts | 265° |
| 2026-05-06 14:39 | 41.50440 | -92.05474 | 37346 ft | 363 kts | 265° |
| 2026-05-06 14:40 | 41.50359 | -92.07712 | 36804 ft | 366 kts | 265° |
| 2026-05-06 14:40 | 41.50240 | -92.11106 | 36087 ft | 367 kts | 265° |
| 2026-05-06 14:40 | 41.50120 | -92.14505 | 35430 ft | 365 kts | 265° |
| 2026-05-06 14:40 | 41.50000 | -92.17888 | 34785 ft | 364 kts | 265° |
| 2026-05-06 14:41 | 41.49881 | -92.21253 | 34143 ft | 362 kts | 265° |
| 2026-05-06 14:41 | 41.49761 | -92.24564 | 33231 ft | 361 kts | 265° |
| 2026-05-06 14:41 | 41.49637 | -92.27917 | 32249 ft | 362 kts | 264° |
| 2026-05-06 14:41 | 41.49512 | -92.31283 | 31411 ft | 361 kts | 264° |
| 2026-05-06 14:42 | 41.49386 | -92.34623 | 30610 ft | 360 kts | 264° |
| 2026-05-06 14:42 | 41.49259 | -92.37956 | 29679 ft | 360 kts | 264° |
| 2026-05-06 14:42 | 41.49130 | -92.41293 | 28724 ft | 361 kts | 264° |
| 2026-05-06 14:42 | 41.49000 | -92.44641 | 27800 ft | 361 kts | 264° |
| 2026-05-06 14:43 | 41.48870 | -92.47998 | 26835 ft | 362 kts | 264° |
| 2026-05-06 14:43 | 41.48739 | -92.51380 | 25863 ft | 365 kts | 264° |
| 2026-05-06 14:43 | 41.48607 | -92.54764 | 24911 ft | 366 kts | 264° |
| 2026-05-06 14:43 | 41.48475 | -92.58154 | 23988 ft | 367 kts | 264° |
| 2026-05-06 14:44 | 41.48346 | -92.61527 | 22978 ft | 368 kts | 265° |
| 2026-05-06 14:44 | 41.48210 | -92.64940 | 22092 ft | 366 kts | 265° |
| 2026-05-06 14:44 | 41.48075 | -92.68312 | 21386 ft | 361 kts | 265° |
| 2026-05-06 14:45 | 41.47804 | -92.74943 | 19979 ft | 355 kts | 266° |
| 2026-05-06 14:45 | 41.47668 | -92.78233 | 19284 ft | 354 kts | 266° |
| 2026-05-06 14:45 | 41.47533 | -92.81514 | 18616 ft | 354 kts | 266° |
| 2026-05-06 14:45 | 41.47340 | -92.84857 | 17837 ft | 360 kts | 265° |
| 2026-05-06 14:46 | 41.47065 | -92.88128 | 17056 ft | 349 kts | 263° |
| 2026-05-06 14:46 | 41.46752 | -92.91294 | 16307 ft | 340 kts | 263° |
| 2026-05-06 14:46 | 41.46437 | -92.94348 | 15575 ft | 331 kts | 263° |
| 2026-05-06 14:46 | 41.46129 | -92.97365 | 14850 ft | 324 kts | 263° |
| 2026-05-06 14:47 | 41.45836 | -93.00307 | 14147 ft | 317 kts | 264° |
| 2026-05-06 14:47 | 41.45556 | -93.03196 | 13384 ft | 311 kts | 264° |
| 2026-05-06 14:47 | 41.45287 | -93.06040 | 12605 ft | 306 kts | 265° |
| 2026-05-06 14:47 | 41.45027 | -93.08843 | 11848 ft | 302 kts | 265° |
| 2026-05-06 14:48 | 41.44770 | -93.11610 | 11089 ft | 299 kts | 265° |
| 2026-05-06 14:48 | 41.44516 | -93.14348 | 10361 ft | 296 kts | 265° |
| 2026-05-06 14:48 | 41.44262 | -93.17062 | 9599 ft | 293 kts | 265° |
| 2026-05-06 14:48 | 41.44011 | -93.19745 | 8814 ft | 290 kts | 265° |
| 2026-05-06 14:49 | 41.43760 | -93.22407 | 8042 ft | 288 kts | 265° |
| 2026-05-06 14:49 | 41.43508 | -93.25050 | 7299 ft | 287 kts | 265° |
| 2026-05-06 14:49 | 41.43257 | -93.27689 | 6559 ft | 286 kts | 265° |
| 2026-05-06 14:49 | 41.43009 | -93.30312 | 5783 ft | 283 kts | 265° |
| 2026-05-06 14:50 | 41.42759 | -93.32915 | 5024 ft | 282 kts | 265° |
| 2026-05-06 14:50 | 41.42510 | -93.35492 | 4357 ft | 276 kts | 265° |
| 2026-05-06 14:50 | 41.42270 | -93.37922 | 4214 ft | 254 kts | 265° |
| 2026-05-06 14:50 | 41.42047 | -93.40171 | 4082 ft | 235 kts | 265° |
| 2026-05-06 14:51 | 41.41841 | -93.42296 | 3947 ft | 227 kts | 265° |
| 2026-05-06 14:51 | 41.41645 | -93.44352 | 3810 ft | 220 kts | 265° |
| 2026-05-06 14:51 | 41.41471 | -93.46310 | 3669 ft | 210 kts | 270° |
| 2026-05-06 14:51 | 41.41683 | -93.48168 | 3556 ft | 199 kts | 292° |
| 2026-05-06 14:52 | 41.42380 | -93.49718 | 3409 ft | 192 kts | 312° |
| 2026-05-06 14:52 | 41.43268 | -93.51007 | 3292 ft | 188 kts | 314° |
| 2026-05-06 14:52 | 41.44160 | -93.52297 | 3157 ft | 192 kts | 313° |
| 2026-05-06 14:52 | 41.45056 | -93.53598 | 3059 ft | 187 kts | 313° |
| 2026-05-06 14:53 | 41.45939 | -93.54880 | 2997 ft | 193 kts | 314° |